createdAt,value
2022-12-23T05:02:00.986Z,85.97
2022-12-23T05:06:04.253Z,86.15
2022-12-23T05:10:07.788Z,86.34
2022-12-23T05:14:10.601Z,87.25
2022-12-23T05:18:17.553Z,87.09
2022-12-23T05:22:20.070Z,87.99
2022-12-23T05:26:22.626Z,88.82
2022-12-23T05:30:25.213Z,89.38
2022-12-23T05:34:29.348Z,89.26
2022-12-23T05:38:32.328Z,89.43
2022-12-23T05:42:34.806Z,89.53
2022-12-23T05:46:37.685Z,89.89
2022-12-23T05:50:42.058Z,89.95
2022-12-23T05:54:44.705Z,90.11
2022-12-23T05:58:47.236Z,89.22
2022-12-23T06:02:53.993Z,89.29
2022-12-23T06:06:58.327Z,89.04
2022-12-23T06:11:00.818Z,89.38
2022-12-23T06:15:04.201Z,89.08
2022-12-23T06:19:06.911Z,89.27
2022-12-23T06:23:10.718Z,88.54
2022-12-23T06:27:13.269Z,89.68
2022-12-23T06:31:16.133Z,90.04
2022-12-23T06:35:18.882Z,90.27
2022-12-23T06:39:22.708Z,90.26
2022-12-23T06:43:25.275Z,90.08
2022-12-23T06:47:27.819Z,90.26
2022-12-23T06:51:30.435Z,90.01
2022-12-23T06:55:34.399Z,89.48
2022-12-23T06:59:36.892Z,88.86
2022-12-23T07:03:39.867Z,88.69
2022-12-23T07:07:42.414Z,88.89
2022-12-23T07:11:46.248Z,89.25
2022-12-23T07:15:48.735Z,89.29
2022-12-23T07:19:51.215Z,90.16
2022-12-23T07:23:53.758Z,90.05
2022-12-23T07:27:57.793Z,90.08
2022-12-23T07:32:02.561Z,89.71
2022-12-23T07:36:05.754Z,89.22
2022-12-23T07:40:09.412Z,89.13
2022-12-23T07:44:13.577Z,88.90
2022-12-23T07:48:16.901Z,88.37
2022-12-23T07:52:19.752Z,88.84
2022-12-23T07:56:22.475Z,89.03
2022-12-23T08:00:26.391Z,88.29
2022-12-23T08:04:28.960Z,88.40
2022-12-23T08:08:32.140Z,89.29
2022-12-23T08:12:35.136Z,89.09
2022-12-23T08:16:43.583Z,88.68
2022-12-23T08:20:54.806Z,88.85
2022-12-23T08:24:57.318Z,88.59
2022-12-23T08:29:00.979Z,89.13
2022-12-23T08:33:05.002Z,88.57
2022-12-23T08:37:07.880Z,88.64
2022-12-23T08:41:11.173Z,88.39
2022-12-23T08:45:13.755Z,88.62
2022-12-23T08:49:17.651Z,88.17
2022-12-23T08:53:20.211Z,87.46
2022-12-23T08:57:22.749Z,87.83
2022-12-23T09:01:27.208Z,87.84
2022-12-23T09:05:31.667Z,87.74
2022-12-23T09:09:34.216Z,88.11
2022-12-23T09:13:36.895Z,88.35
2022-12-23T09:17:39.467Z,88.61
2022-12-23T09:21:43.344Z,88.87
2022-12-23T09:25:45.892Z,88.31
2022-12-23T09:29:48.391Z,88.14
2022-12-23T09:33:52.774Z,88.51
2022-12-23T09:37:57.251Z,88.41
2022-12-23T09:42:07.280Z,88.39
2022-12-23T09:46:17.555Z,87.44
2022-12-23T09:50:25.192Z,86.88
2022-12-23T09:54:34.315Z,86.25
2022-12-23T09:58:44.850Z,85.98
2022-12-23T10:03:03.909Z,85.41
2022-12-23T10:07:22.791Z,84.99
2022-12-23T10:11:30.716Z,84.45
2022-12-23T10:15:39.666Z,84.84
2022-12-23T10:19:44.939Z,84.80
2022-12-23T10:23:52.370Z,85.99
2022-12-23T10:27:56.678Z,85.87
2022-12-23T10:32:15.640Z,85.14
2022-12-23T10:36:24.406Z,84.71
2022-12-23T10:40:30.933Z,83.96
2022-12-23T10:45:01.541Z,84.51
2022-12-23T10:49:14.048Z,84.08
2022-12-23T10:53:28.370Z,83.82
2022-12-23T10:57:31.194Z,83.72
2022-12-23T11:01:35.447Z,84.42
2022-12-23T11:05:39.465Z,84.42
2022-12-23T11:09:44.983Z,85.63
2022-12-23T11:13:47.593Z,85.64
2022-12-23T11:17:59.629Z,84.36
2022-12-23T11:22:03.298Z,83.93
2022-12-23T11:26:08.631Z,84.34
2022-12-23T11:30:19.605Z,84.37
2022-12-23T11:34:27.088Z,83.84
2022-12-23T11:38:30.220Z,84.56
2022-12-23T11:42:35.429Z,85.35
2022-12-23T11:46:38.072Z,85.88
2022-12-23T11:50:42.022Z,85.67
2022-12-23T11:54:54.606Z,85.43
2022-12-23T11:59:03.678Z,84.30
2022-12-23T12:03:08.034Z,82.36
2022-12-23T12:07:15.430Z,81.42
2022-12-23T12:11:19.879Z,81.49
2022-12-23T12:15:30.299Z,82.39
2022-12-23T12:19:36.666Z,82.53
2022-12-23T12:23:47.586Z,83.02
2022-12-23T12:27:58.110Z,84.76
2022-12-23T12:32:02.493Z,86.68
2022-12-23T12:36:13.547Z,86.46
2022-12-23T12:40:27.117Z,86.52
2022-12-23T12:44:35.375Z,85.81
2022-12-23T12:48:46.904Z,84.11
2022-12-23T12:52:53.613Z,85.06
2022-12-23T12:56:58.363Z,86.44
2022-12-23T13:01:18.378Z,86.08
2022-12-23T13:05:33.358Z,85.52
2022-12-23T13:09:48.159Z,85.60
2022-12-23T13:13:59.986Z,84.43
2022-12-23T13:18:17.659Z,83.64
2022-12-23T13:22:28.741Z,84.00
2022-12-23T13:26:39.395Z,84.71
2022-12-23T13:30:48.728Z,84.32
2022-12-23T13:35:02.281Z,83.36
2022-12-23T13:39:19.018Z,83.24
2022-12-23T13:43:26.083Z,83.77
2022-12-23T13:47:43.668Z,82.98
2022-12-23T13:51:54.213Z,82.86
2022-12-23T13:56:10.013Z,82.58
2022-12-23T14:01:10.268Z,82.23
2022-12-23T14:05:36.357Z,82.93
2022-12-23T14:09:40.737Z,82.79
2022-12-23T14:13:46.915Z,82.35
2022-12-23T14:18:04.772Z,82.32
2022-12-23T14:22:29.084Z,82.39
2022-12-23T14:26:47.600Z,81.61
2022-12-23T14:30:59.522Z,82.25
2022-12-23T14:36:04.621Z,83.15
2022-12-23T14:40:44.689Z,85.68
2022-12-23T14:44:51.573Z,86.41
2022-12-23T14:49:38.134Z,86.35
2022-12-23T14:53:58.483Z,86.65
2022-12-23T14:58:09.911Z,86.80
2022-12-23T15:02:19.755Z,87.20
2022-12-23T15:06:30.291Z,86.27
2022-12-23T15:10:33.967Z,86.49
2022-12-23T15:14:43.925Z,87.19
2022-12-23T15:18:54.421Z,87.14
2022-12-23T15:23:01.540Z,86.42
2022-12-23T15:31:36.728Z,85.25
2022-12-23T15:35:40.813Z,84.85
2022-12-23T15:39:46.881Z,85.36
2022-12-23T15:43:49.685Z,86.55
2022-12-23T15:47:53.499Z,85.73
2022-12-23T15:52:08.088Z,85.88
2022-12-23T15:56:22.234Z,85.29
2022-12-23T16:00:28.035Z,85.69
2022-12-23T16:04:32.026Z,85.81
2022-12-23T16:08:35.689Z,85.98
2022-12-23T16:12:39.672Z,85.80
2022-12-23T16:16:43.455Z,85.34
2022-12-23T16:20:50.182Z,85.06
2022-12-23T16:24:59.602Z,84.96
2022-12-23T16:29:02.358Z,85.36
2022-12-23T16:33:07.221Z,85.41
2022-12-23T16:37:11.020Z,85.46
2022-12-23T16:41:13.579Z,85.21
2022-12-23T16:45:16.159Z,85.81
2022-12-23T16:49:20.859Z,85.68
2022-12-23T16:53:24.734Z,85.53
2022-12-23T16:57:27.342Z,85.67
2022-12-23T17:01:33.576Z,85.39
2022-12-23T17:05:36.325Z,85.47
2022-12-23T17:09:40.948Z,85.72
2022-12-23T17:13:44.994Z,84.94
2022-12-23T17:17:48.880Z,85.05
2022-12-23T17:21:56.793Z,84.53
2022-12-23T17:26:00.724Z,84.68
2022-12-23T17:30:03.243Z,84.03
2022-12-23T17:34:11.526Z,83.84
2022-12-23T17:38:15.911Z,84.08
2022-12-23T17:42:25.790Z,84.13
2022-12-23T17:46:30.072Z,84.49
2022-12-23T17:50:35.303Z,84.98
2022-12-23T17:54:37.854Z,85.09
2022-12-23T17:58:41.871Z,85.37
2022-12-23T18:02:45.360Z,85.65
2022-12-23T18:06:47.863Z,85.96
2022-12-23T18:10:50.618Z,85.47
2022-12-23T18:14:54.605Z,85.05
2022-12-23T18:18:57.568Z,85.11
2022-12-23T18:23:01.599Z,85.32
2022-12-23T18:27:09.950Z,85.73
2022-12-23T18:31:17.247Z,85.75
2022-12-23T18:35:26.959Z,85.59
2022-12-23T18:39:29.514Z,85.92
2022-12-23T18:43:32.168Z,86.19
2022-12-23T18:47:36.029Z,86.25
2022-12-23T18:51:39.680Z,86.28
2022-12-23T18:55:42.156Z,86.67
2022-12-23T18:59:44.663Z,86.20
2022-12-23T19:03:48.653Z,86.06
2022-12-23T19:07:52.074Z,85.92
2022-12-23T19:11:55.307Z,85.95
2022-12-23T19:15:57.856Z,85.87
2022-12-23T19:20:01.851Z,86.27
2022-12-23T19:24:04.842Z,86.25
2022-12-23T19:28:07.606Z,86.75
2022-12-23T19:32:10.299Z,85.90
2022-12-23T19:36:15.922Z,85.99
2022-12-23T19:40:18.839Z,86.33
2022-12-23T19:44:21.607Z,86.45
2022-12-23T19:48:24.400Z,86.54
2022-12-23T19:52:28.263Z,86.18
2022-12-23T19:56:32.372Z,86.21
2022-12-23T20:00:34.889Z,86.02
2022-12-23T20:04:37.728Z,86.15
2022-12-23T20:08:43.517Z,86.26
2022-12-23T20:12:46.224Z,86.29
2022-12-23T20:16:49.325Z,85.92
2022-12-23T20:20:51.845Z,86.20
2022-12-23T20:24:55.714Z,86.81
2022-12-23T20:28:58.719Z,86.50
2022-12-23T20:33:01.301Z,86.47
2022-12-23T20:37:04.659Z,86.26
2022-12-23T20:41:09.235Z,86.52
2022-12-23T20:45:13.406Z,86.58
2022-12-23T20:49:15.915Z,86.52
2022-12-23T20:53:18.418Z,86.49
2022-12-23T20:57:22.311Z,86.55
2022-12-23T21:01:27.112Z,86.62
2022-12-23T21:05:29.723Z,86.74
2022-12-23T21:09:32.431Z,86.13
2022-12-23T21:13:36.971Z,86.35
2022-12-23T21:17:39.543Z,85.52
2022-12-23T21:21:42.061Z,85.90
2022-12-23T21:25:44.618Z,85.03
2022-12-23T21:29:48.638Z,84.26
2022-12-23T21:33:52.936Z,83.47
2022-12-23T21:37:55.486Z,82.85
2022-12-23T21:41:58.043Z,83.01
2022-12-23T21:46:03.681Z,83.38
2022-12-23T21:50:07.611Z,83.67
2022-12-23T21:54:11.513Z,83.89
2022-12-23T21:58:14.098Z,83.90
